Time;durP1;ratioP1;P1;durP2;ratioP2;P2;SDS_P1;SDS_P2;PMS_P1;PMS_P2;Temp;Humidity;BMP_temperature;BMP_pressure;BME280_temperature;BME280_humidity;BME280_pressure;Samples;Min_cycle;Max_cycle;Signal;HPM_P1;HPM_P2
2021/03/24 00:01:22;;;;;;;24.15;16.33;;;2.90;99.90;;;;;;4957795;28;20031;-74
2021/03/24 00:03:48;;;;;;;24.80;14.98;;;2.80;99.90;;;;;;4958587;28;20031;-74
2021/03/24 00:06:14;;;;;;;23.00;16.02;;;2.80;99.90;;;;;;4957145;28;20090;-73
2021/03/24 00:08:40;;;;;;;20.60;14.50;;;2.80;99.90;;;;;;4958190;28;20495;-74
2021/03/24 00:11:07;;;;;;;21.67;14.85;;;2.70;99.90;;;;;;4961745;28;20027;-73
2021/03/24 00:13:33;;;;;;;21.77;15.77;;;2.70;99.90;;;;;;4962940;28;20026;-73
2021/03/24 00:16:00;;;;;;;22.08;15.77;;;2.70;99.90;;;;;;4967229;28;20339;-73
2021/03/24 00:18:26;;;;;;;20.13;15.02;;;2.70;99.90;;;;;;4966592;28;20023;-75
2021/03/24 00:20:52;;;;;;;24.95;14.93;;;2.70;99.90;;;;;;4960865;28;20034;-74
2021/03/24 00:23:18;;;;;;;24.35;16.08;;;2.60;99.90;;;;;;4970485;28;20082;-73
2021/03/24 00:25:43;;;;;;;22.58;15.00;;;2.60;99.90;;;;;;4966932;28;20070;-77
2021/03/24 00:28:10;;;;;;;21.92;14.30;;;2.60;99.90;;;;;;4968434;28;20066;-73
2021/03/24 00:30:39;;;;;;;19.17;14.35;;;2.60;99.90;;;;;;4955144;28;20051;-73
2021/03/24 00:33:05;;;;;;;20.85;14.27;;;2.60;99.90;;;;;;4959361;28;20133;-74
2021/03/24 00:35:33;;;;;;;24.00;15.70;;;2.60;99.90;;;;;;4966246;28;20119;-76
2021/03/24 00:37:59;;;;;;;20.42;14.57;;;2.50;99.90;;;;;;4967273;28;20042;-73
2021/03/24 00:40:31;;;;;;;22.55;15.65;;;2.40;99.90;;;;;;4972491;28;20113;-73
2021/03/24 00:42:57;;;;;;;28.15;15.48;;;2.40;99.90;;;;;;4974405;28;20087;-73
2021/03/24 00:45:23;;;;;;;24.48;16.42;;;2.40;99.90;;;;;;4965524;28;20031;-73
2021/03/24 00:47:48;;;;;;;26.23;16.08;;;2.40;99.90;;;;;;4958324;29;20103;-73
2021/03/24 00:50:17;;;;;;;26.90;15.32;;;2.40;99.90;;;;;;4959611;28;20024;-73
2021/03/24 00:52:42;;;;;;;21.10;14.95;;;2.40;99.90;;;;;;4956048;28;20040;-74
2021/03/24 00:55:08;;;;;;;21.85;16.23;;;2.40;99.90;;;;;;4948040;28;20027;-72
2021/03/24 00:57:34;;;;;;;26.05;16.50;;;2.30;99.90;;;;;;4954712;28;20086;-73
2021/03/24 01:00:00;;;;;;;25.17;15.45;;;2.30;99.90;;;;;;4955148;28;20058;-73
2021/03/24 01:02:26;;;;;;;23.85;15.82;;;2.30;99.90;;;;;;4959026;28;20059;-73
2021/03/24 01:04:51;;;;;;;24.38;15.48;;;2.30;99.90;;;;;;4959394;28;20035;-73
2021/03/24 01:07:17;;;;;;;23.58;15.45;;;2.30;99.90;;;;;;4959284;28;20101;-73
2021/03/24 01:09:43;;;;;;;28.92;16.30;;;2.30;99.90;;;;;;4958220;28;20129;-74
2021/03/24 01:12:10;;;;;;;22.05;15.93;;;2.20;99.90;;;;;;4958686;28;20039;-72
2021/03/24 01:14:36;;;;;;;25.70;15.20;;;2.20;99.90;;;;;;4957833;28;20254;-72
2021/03/24 01:17:02;;;;;;;22.05;15.27;;;2.20;99.90;;;;;;4962435;28;20023;-72
2021/03/24 01:19:28;;;;;;;21.55;15.65;;;2.20;99.90;;;;;;4966235;28;20042;-74
2021/03/24 01:21:53;;;;;;;29.80;16.42;;;2.20;99.90;;;;;;4962414;28;20106;-74
2021/03/24 01:24:19;;;;;;;21.10;15.05;;;2.20;99.90;;;;;;4962162;28;20042;-73
2021/03/24 01:26:45;;;;;;;21.15;14.00;;;2.20;99.90;;;;;;4962091;28;20403;-73
2021/03/24 01:29:10;;;;;;;20.55;14.73;;;2.20;99.90;;;;;;4970924;28;20070;-73
2021/03/24 01:31:36;;;;;;;23.08;15.05;;;2.20;99.90;;;;;;4973519;28;20045;-74
2021/03/24 01:34:01;;;;;;;29.08;18.13;;;2.10;99.90;;;;;;4969133;28;20035;-73
2021/03/24 01:36:28;;;;;;;27.40;16.58;;;2.10;99.90;;;;;;4981119;23;20097;-74
2021/03/24 01:38:54;;;;;;;28.73;16.02;;;2.00;99.90;;;;;;4972190;28;20027;-72
2021/03/24 01:41:21;;;;;;;28.20;17.73;;;1.90;99.90;;;;;;4967782;28;20082;-72
2021/03/24 01:43:47;;;;;;;31.42;17.08;;;1.90;99.90;;;;;;4985638;28;20101;-74
2021/03/24 01:46:19;;;;;;;22.50;15.48;;;1.90;99.90;;;;;;4980158;28;20055;-74
2021/03/24 01:48:55;;;;;;;26.60;16.10;;;1.80;99.90;;;;;;4988870;28;20094;-75
2021/03/24 01:51:26;;;;;;;28.27;16.60;;;1.90;99.90;;;;;;4974473;28;20022;-72
2021/03/24 01:53:54;;;;;;;25.33;15.88;;;1.90;99.90;;;;;;4971638;28;20395;-72
2021/03/24 01:56:20;;;;;;;22.05;16.35;;;1.90;99.90;;;;;;4971708;28;20026;-72
2021/03/24 01:58:47;;;;;;;28.48;15.60;;;1.90;99.90;;;;;;4966358;28;20033;-73
2021/03/24 02:01:18;;;;;;;33.67;17.95;;;1.90;99.90;;;;;;4972993;28;20073;-75
2021/03/24 02:03:44;;;;;;;29.20;15.80;;;1.90;99.90;;;;;;4973854;28;20387;-73
2021/03/24 02:06:30;;;;;;;23.25;16.33;;;1.90;99.90;;;;;;4972037;28;20093;-73
2021/03/24 02:09:11;;;;;;;33.70;17.08;;;1.80;99.90;;;;;;4967471;28;20434;-73
2021/03/24 02:12:05;;;;;;;31.25;18.05;;;1.80;99.90;;;;;;4974273;28;20077;-73
2021/03/24 02:14:41;;;;;;;27.80;18.48;;;1.70;99.90;;;;;;4972633;28;20495;-73
2021/03/24 02:17:08;;;;;;;30.90;19.38;;;1.80;99.90;;;;;;4970307;28;20033;-73
2021/03/24 02:20:06;;;;;;;27.85;19.00;;;1.80;99.90;;;;;;4990744;28;20086;-73
2021/03/24 02:23:02;;;;;;;28.05;18.95;;;1.80;99.90;;;;;;4992081;28;20031;-73
2021/03/24 02:25:40;;;;;;;26.95;19.30;;;1.70;99.90;;;;;;4972882;28;20042;-73
2021/03/24 02:28:10;;;;;;;29.63;18.27;;;1.80;99.90;;;;;;4965857;28;20106;-73
2021/03/24 02:30:41;;;;;;;24.38;17.80;;;1.70;99.90;;;;;;4972371;28;20146;-73
2021/03/24 02:33:09;;;;;;;;;;;1.70;99.90;;;;;;4966172;28;20034;-74
2021/03/24 02:35:42;;;;;;;30.85;17.48;;;1.60;99.90;;;;;;4973229;28;19910;-73
2021/03/24 02:38:09;;;;;;;29.10;18.90;;;1.60;99.90;;;;;;4971485;28;20114;-74
2021/03/24 02:40:38;;;;;;;29.13;16.83;;;1.60;99.90;;;;;;4970533;28;20098;-74
2021/03/24 02:43:04;;;;;;;29.35;17.52;;;1.60;99.90;;;;;;4974219;28;20042;-72
2021/03/24 02:45:34;;;;;;;28.00;20.13;;;1.50;99.90;;;;;;4974008;28;20035;-72
2021/03/24 02:48:04;;;;;;;25.20;17.92;;;1.70;99.90;;;;;;4978755;28;20085;-73
2021/03/24 02:50:31;;;;;;;25.83;18.17;;;1.80;99.90;;;;;;4990567;28;20090;-74
2021/03/24 02:52:59;;;;;;;26.85;17.73;;;1.80;99.90;;;;;;4988622;28;20023;-73
2021/03/24 02:55:25;;;;;;;27.92;18.20;;;1.70;99.90;;;;;;4983719;28;20498;-72
2021/03/24 02:57:50;;;;;;;26.35;17.63;;;1.60;99.90;;;;;;4986071;28;20318;-73
2021/03/24 03:00:21;;;;;;;21.08;16.92;;;1.50;99.90;;;;;;4990236;28;20030;-74
2021/03/24 03:02:56;;;;;;;;;;;1.50;99.90;;;;;;4982970;28;20024;-72
2021/03/24 03:05:36;;;;;;;27.80;16.10;;;1.50;99.90;;;;;;4987613;28;19905;-73
2021/03/24 03:08:23;;;;;;;27.92;17.83;;;1.50;99.90;;;;;;4997811;28;20081;-72
2021/03/24 03:10:58;;;;;;;28.00;17.55;;;1.30;99.90;;;;;;4996174;28;20058;-73
2021/03/24 03:14:15;;;;;;;28.92;17.63;;;1.30;99.90;;;;;;4989357;28;20035;-72
2021/03/24 03:16:45;;;;;;;27.30;17.98;;;1.30;99.90;;;;;;4903307;29;20055;-73
2021/03/24 03:19:11;;;;;;;25.17;18.23;;;1.40;99.90;;;;;;4973271;28;20047;-72
2021/03/24 03:21:43;;;;;;;23.90;17.35;;;1.40;99.90;;;;;;4977642;28;20045;-72
2021/03/24 03:24:10;;;;;;;24.63;17.67;;;1.30;99.90;;;;;;4983884;28;20029;-73
2021/03/24 03:26:43;;;;;;;27.73;19.27;;;1.30;99.90;;;;;;4988172;28;20395;-72
2021/03/24 03:29:15;;;;;;;25.60;16.90;;;1.20;99.90;;;;;;4979059;28;20394;-73
2021/03/24 03:31:43;;;;;;;27.25;17.55;;;1.20;99.90;;;;;;4999861;28;20027;-73
2021/03/24 03:34:11;;;;;;;29.98;18.20;;;1.10;99.90;;;;;;4977590;28;20031;-73
2021/03/24 03:36:42;;;;;;;27.95;19.08;;;1.10;1.00;;;;;;4973456;28;20030;-72
2021/03/24 03:39:13;;;;;;;29.15;20.08;;;1.10;99.90;;;;;;4976314;28;20050;-73
2021/03/24 03:41:39;;;;;;;31.25;18.80;;;1.10;1.00;;;;;;4972274;28;20028;-72
2021/03/24 03:44:07;;;;;;;28.50;18.42;;;1.20;1.00;;;;;;4974284;28;20042;-72
2021/03/24 03:46:36;;;;;;;23.38;18.23;;;1.10;1.00;;;;;;4976687;28;20026;-73
2021/03/24 03:49:03;;;;;;;29.47;18.77;;;1.20;1.00;;;;;;4968014;28;20023;-74
2021/03/24 03:51:37;;;;;;;30.90;19.50;;;1.10;1.00;;;;;;4966389;28;20038;-74
2021/03/24 03:54:23;;;;;;;27.65;17.95;;;1.10;1.00;;;;;;4974597;28;20123;-73
2021/03/24 03:57:08;;;;;;;25.65;17.58;;;1.10;1.00;;;;;;4968467;28;20029;-73
2021/03/24 03:59:38;;;;;;;27.90;18.58;;;1.20;99.90;;;;;;4976176;28;20555;-72
2021/03/24 04:02:09;;;;;;;26.15;17.88;;;1.10;99.90;;;;;;4976714;28;20034;-73
2021/03/24 04:04:46;;;;;;;30.70;20.35;;;1.20;99.90;;;;;;4977860;28;20027;-73
2021/03/24 04:07:25;;;;;;;25.02;18.40;;;1.10;99.90;;;;;;4974778;28;20050;-72
2021/03/24 04:09:54;;;;;;;24.63;17.65;;;1.10;99.90;;;;;;4969078;28;20410;-73
2021/03/24 04:12:22;;;;;;;30.48;19.40;;;1.10;99.90;;;;;;4976489;28;20031;-72
2021/03/24 04:14:50;;;;;;;24.67;17.80;;;1.10;1.00;;;;;;4982691;28;20027;-74
2021/03/24 04:17:21;;;;;;;28.33;20.38;;;1.10;99.90;;;;;;4975613;28;20057;-73
2021/03/24 04:19:50;;;;;;;33.88;19.90;;;1.10;99.90;;;;;;4974068;28;20465;-74
2021/03/24 04:22:18;;;;;;;30.48;20.80;;;1.10;1.00;;;;;;4970117;28;20034;-72
2021/03/24 04:24:55;;;;;;;34.92;20.95;;;1.00;1.00;;;;;;4969911;28;20085;-72
2021/03/24 04:27:26;;;;;;;31.25;20.45;;;1.00;99.90;;;;;;4976238;28;20033;-74
2021/03/24 04:29:53;;;;;;;;;;;1.10;99.90;;;;;;4971582;28;20023;-73
2021/03/24 04:32:19;;;;;;;29.98;18.50;;;1.00;1.00;;;;;;4974476;28;19960;-73
2021/03/24 04:34:45;;;;;;;27.60;18.33;;;1.00;99.90;;;;;;4976218;28;20053;-74
2021/03/24 04:37:42;;;;;;;28.75;18.90;;;1.00;1.00;;;;;;4967268;28;20031;-73
2021/03/24 04:40:11;;;;;;;28.20;18.90;;;0.90;1.00;;;;;;4963929;28;20050;-73
2021/03/24 04:42:44;;;;;;;31.52;19.67;;;0.90;1.00;;;;;;4990226;28;20046;-74
2021/03/24 04:45:37;;;;;;;28.40;18.25;;;0.80;1.00;;;;;;4975054;28;20495;-72
2021/03/24 04:48:13;;;;;;;27.33;18.15;;;0.90;1.00;;;;;;4969717;28;20038;-74
2021/03/24 04:50:48;;;;;;;25.63;18.08;;;0.90;1.00;;;;;;4970494;28;20106;-73
2021/03/24 04:53:16;;;;;;;27.10;19.40;;;0.90;1.00;;;;;;4970241;28;20038;-73
2021/03/24 04:55:43;;;;;;;29.55;20.45;;;0.90;1.00;;;;;;4972630;28;20103;-73
2021/03/24 04:58:26;;;;;;;30.02;21.15;;;0.80;1.00;;;;;;4981357;28;20097;-72
2021/03/24 05:00:59;;;;;;;28.85;22.27;;;0.80;1.00;;;;;;4990143;28;20034;-73
2021/03/24 05:03:29;;;;;;;36.35;22.70;;;0.90;1.00;;;;;;4990737;28;20086;-73
2021/03/24 05:05:58;;;;;;;;;;;0.90;1.00;;;;;;4982387;28;20083;-72
2021/03/24 05:08:31;;;;;;;31.20;20.00;;;0.80;1.00;;;;;;4966814;28;19909;-72
2021/03/24 05:11:11;;;;;;;34.25;19.83;;;0.90;1.00;;;;;;4969922;28;20058;-73
2021/03/24 05:13:50;;;;;;;34.25;19.52;;;0.90;1.00;;;;;;4964514;28;20122;-73
2021/03/24 05:16:27;;;;;;;34.30;18.98;;;0.90;1.00;;;;;;4976998;28;20026;-73
2021/03/24 05:18:57;;;;;;;33.90;19.65;;;0.80;1.00;;;;;;4968949;28;20022;-72
2021/03/24 05:21:27;;;;;;;32.35;19.90;;;0.90;1.00;;;;;;4963013;28;20453;-74
2021/03/24 05:23:57;;;;;;;34.35;20.13;;;0.80;1.00;;;;;;4977356;28;20533;-72
2021/03/24 05:26:32;;;;;;;40.08;20.40;;;0.80;1.00;;;;;;4978490;28;20038;-75
2021/03/24 05:29:00;;;;;;;36.30;19.70;;;0.90;99.90;;;;;;4984936;28;20497;-72
2021/03/24 05:31:32;;;;;;;29.15;16.83;;;1.00;99.90;;;;;;4982825;28;20051;-73
2021/03/24 05:34:06;;;;;;;26.98;18.17;;;1.20;99.90;;;;;;4977038;28;20105;-74
2021/03/24 05:36:35;;;;;;;35.10;19.05;;;1.50;99.90;;;;;;4968297;28;20093;-73
2021/03/24 05:39:47;;;;;;;29.70;17.17;;;1.70;99.90;;;;;;4972908;28;20019;-73
2021/03/24 05:42:38;;;;;;;28.33;16.60;;;1.90;99.90;;;;;;4932675;29;20056;-74
2021/03/24 05:45:08;;;;;;;29.17;17.35;;;2.00;99.90;;;;;;4931507;29;20032;-74
2021/03/24 05:47:46;;;;;;;26.70;17.80;;;2.10;99.90;;;;;;4962006;28;20039;-73
2021/03/24 05:50:21;;;;;;;24.75;16.00;;;2.00;99.90;;;;;;4972096;28;20406;-72
2021/03/24 05:53:00;;;;;;;27.08;17.88;;;1.90;99.90;;;;;;4975597;28;20480;-74
2021/03/24 05:55:33;;;;;;;23.23;15.75;;;1.80;99.90;;;;;;4972482;28;20130;-73
2021/03/24 05:58:11;;;;;;;22.35;16.30;;;1.80;99.90;;;;;;4968570;28;20557;-74
2021/03/24 06:00:56;;;;;;;23.42;14.93;;;2.00;99.90;;;;;;4987919;28;20035;-74
2021/03/24 06:03:53;;;;;;;19.98;15.20;;;1.80;99.90;;;;;;4973835;28;20109;-73
2021/03/24 06:06:54;;;;;;;29.55;17.85;;;1.80;99.90;;;;;;4972218;28;20034;-74
2021/03/24 06:09:50;;;;;;;27.77;17.42;;;1.80;99.90;;;;;;4969756;28;20042;-73
2021/03/24 06:12:40;;;;;;;29.40;17.48;;;2.00;99.90;;;;;;4971056;28;20118;-75
2021/03/24 06:15:31;;;;;;;27.95;17.83;;;2.30;99.90;;;;;;4973022;28;20077;-74
2021/03/24 06:18:20;;;;;;;23.27;15.60;;;2.30;99.90;;;;;;4967617;28;20033;-73
2021/03/24 06:21:03;;;;;;;24.40;16.42;;;2.50;99.90;;;;;;4968767;28;20034;-74
2021/03/24 06:23:54;;;;;;;28.02;16.60;;;2.60;99.90;;;;;;4971534;28;20978;-73
2021/03/24 06:26:42;;;;;;;22.70;16.43;;;2.50;99.90;;;;;;4972371;28;20030;-74
2021/03/24 06:29:26;;;;;;;22.42;17.20;;;2.60;99.90;;;;;;4968513;28;20038;-73
2021/03/24 06:32:33;;;;;;;30.40;17.08;;;2.80;99.90;;;;;;4970724;28;20023;-72
2021/03/24 06:35:18;;;;;;;25.42;18.70;;;2.90;99.90;;;;;;4969128;28;20026;-74
2021/03/24 06:38:10;;;;;;;24.60;16.13;;;2.90;99.90;;;;;;4971656;28;20526;-73
2021/03/24 06:40:57;;;;;;;23.13;15.57;;;2.90;99.90;;;;;;4983811;28;20026;-75
2021/03/24 06:43:43;;;;;;;20.90;16.00;;;3.10;99.90;;;;;;4983263;28;20023;-73
2021/03/24 06:46:11;;;;;;;20.90;15.43;;;3.20;99.90;;;;;;4978304;28;20444;-74
2021/03/24 06:48:50;;;;;;;23.92;15.82;;;3.40;99.90;;;;;;4972306;28;20078;-75
2021/03/24 06:51:41;;;;;;;21.77;15.68;;;3.20;99.90;;;;;;4980715;28;20038;-75
2021/03/24 06:54:15;;;;;;;23.27;17.52;;;3.20;99.90;;;;;;4991764;28;20035;-74
2021/03/24 06:56:59;;;;;;;25.83;16.40;;;3.40;99.90;;;;;;5001991;28;20029;-73
2021/03/24 06:59:31;;;;;;;23.33;16.42;;;3.50;99.90;;;;;;5000563;28;20031;-72
2021/03/24 07:02:03;;;;;;;21.77;16.40;;;3.60;99.90;;;;;;4997378;28;20031;-73
2021/03/24 07:05:05;;;;;;;24.92;16.52;;;3.70;99.90;;;;;;4981114;28;20046;-72
2021/03/24 07:08:33;;;;;;;21.35;15.60;;;3.60;99.90;;;;;;4982204;28;20025;-74
2021/03/24 07:11:18;;;;;;;23.00;15.85;;;3.50;99.90;;;;;;4920245;29;20035;-74
2021/03/24 07:14:11;;;;;;;20.05;16.73;;;3.50;99.90;;;;;;4966994;28;20126;-73
2021/03/24 07:16:47;;;;;;;24.05;15.65;;;3.60;99.90;;;;;;4978592;28;20022;-73
2021/03/24 07:19:39;;;;;;;27.35;16.55;;;3.90;99.90;;;;;;4973831;28;20023;-73
2021/03/24 07:22:17;;;;;;;24.90;15.68;;;4.20;99.90;;;;;;4969139;28;20035;-73
2021/03/24 07:24:58;;;;;;;24.60;18.23;;;4.30;99.90;;;;;;4971022;28;20027;-73
2021/03/24 07:27:51;;;;;;;24.42;17.10;;;4.20;99.90;;;;;;4978726;28;20034;-73
2021/03/24 07:30:42;;;;;;;28.42;16.63;;;4.30;99.90;;;;;;4980363;28;20039;-73
2021/03/24 07:33:11;;;;;;;;;;;4.30;99.90;;;;;;4977368;28;20466;-73
2021/03/24 07:35:50;;;;;;;25.33;16.23;;;4.40;99.90;;;;;;4968211;28;19921;-74
2021/03/24 07:38:46;;;;;;;22.42;16.75;;;4.60;99.90;;;;;;4983015;23;20451;-72
2021/03/24 07:41:49;;;;;;;28.80;16.80;;;4.70;99.90;;;;;;4966569;28;20028;-73
2021/03/24 07:44:41;;;;;;;27.77;15.65;;;5.00;99.90;;;;;;4970552;28;20035;-74
2021/03/24 07:47:26;;;;;;;23.35;15.18;;;4.90;99.90;;;;;;4970405;28;20046;-72
2021/03/24 07:50:04;;;;;;;25.92;16.45;;;5.10;99.90;;;;;;4971003;28;20030;-73
2021/03/24 07:52:52;;;;;;;25.10;17.70;;;5.00;99.90;;;;;;4975982;28;20030;-73
2021/03/24 07:55:30;;;;;;;26.38;16.27;;;5.30;99.90;;;;;;4973585;28;20109;-73
2021/03/24 07:58:02;;;;;;;26.73;17.00;;;5.40;99.90;;;;;;4975533;28;20494;-73
2021/03/24 08:00:43;;;;;;;25.58;17.10;;;5.50;99.90;;;;;;4973500;28;20114;-73
2021/03/24 08:03:27;;;;;;;;;;;5.60;99.90;;;;;;4965458;28;20035;-74
2021/03/24 08:06:23;;;;;;;25.80;16.38;;;5.80;97.30;;;;;;4968856;28;20001;-73
2021/03/24 08:09:26;;;;;;;29.58;17.35;;;5.80;99.90;;;;;;4984995;28;20243;-74
2021/03/24 08:11:57;;;;;;;29.17;18.88;;;5.80;99.90;;;;;;4973349;28;20046;-74
2021/03/24 08:14:32;;;;;;;22.05;17.52;;;6.00;99.90;;;;;;4972606;28;20042;-73
2021/03/24 08:17:14;;;;;;;25.02;17.95;;;6.30;72.40;;;;;;4974469;28;20034;-73
2021/03/24 08:20:00;;;;;;;27.55;18.17;;;6.40;27.30;;;;;;4977313;28;20022;-73
2021/03/24 08:22:57;;;;;;;26.10;17.98;;;6.20;87.30;;;;;;4972395;28;20844;-73
2021/03/24 08:25:35;;;;;;;29.10;17.88;;;6.60;33.00;;;;;;4975521;28;20039;-72
2021/03/24 08:28:14;;;;;;;25.42;17.98;;;6.70;14.80;;;;;;4970423;28;20472;-73
2021/03/24 08:31:08;;;;;;;24.80;16.80;;;6.80;4.10;;;;;;4964469;28;20022;-73
2021/03/24 08:33:51;;;;;;;31.30;17.90;;;6.90;1.00;;;;;;4944190;28;20043;-73
2021/03/24 08:36:20;;;;;;;27.45;18.00;;;7.00;1.00;;;;;;4971432;28;20062;-72
2021/03/24 08:39:13;;;;;;;25.92;17.75;;;7.20;1.00;;;;;;4973576;28;20041;-72
2021/03/24 08:41:57;;;;;;;25.88;18.38;;;7.00;1.00;;;;;;4974408;28;20121;-72
2021/03/24 08:44:49;;;;;;;23.77;17.05;;;7.40;1.00;;;;;;4973474;28;20026;-73
2021/03/24 08:47:26;;;;;;;22.75;17.10;;;7.50;1.00;;;;;;4967823;28;20090;-74
2021/03/24 08:49:54;;;;;;;24.33;17.17;;;7.50;1.00;;;;;;4973504;28;20026;-72
2021/03/24 08:52:42;;;;;;;31.73;18.90;;;7.40;1.00;;;;;;4973828;28;20109;-73
2021/03/24 08:55:19;;;;;;;25.25;17.10;;;7.60;1.00;;;;;;4966041;28;20034;-74
2021/03/24 08:58:14;;;;;;;25.70;18.02;;;7.50;1.00;;;;;;4968262;28;20105;-73
2021/03/24 09:00:54;;;;;;;24.90;18.25;;;7.70;1.00;;;;;;4968757;28;20030;-73
2021/03/24 09:03:37;;;;;;;28.65;17.02;;;8.00;1.00;;;;;;4973875;28;20030;-74
2021/03/24 09:06:31;;;;;;;25.90;16.45;;;8.30;99.90;;;;;;4973382;28;20427;-74
2021/03/24 09:09:10;;;;;;;23.38;16.67;;;8.50;99.90;;;;;;4968099;28;20082;-73
2021/03/24 09:12:15;;;;;;;30.50;17.00;;;8.60;99.90;;;;;;4968356;28;20097;-74
2021/03/24 09:15:20;;;;;;;21.25;15.07;;;8.80;99.90;;;;;;4973454;28;20034;-74
2021/03/24 09:18:00;;;;;;;22.42;15.82;;;8.80;99.90;;;;;;4956433;28;20086;-73
2021/03/24 09:20:29;;;;;;;26.58;17.15;;;8.70;99.90;;;;;;4967974;28;20027;-73
2021/03/24 09:23:32;;;;;;;22.42;15.98;;;8.80;93.10;;;;;;4965524;28;20114;-73
2021/03/24 09:26:06;;;;;;;26.05;17.05;;;8.80;37.40;;;;;;4971179;28;20027;-73
2021/03/24 09:28:59;;;;;;;28.10;17.15;;;8.90;1.00;;;;;;4974769;28;20421;-73
2021/03/24 09:31:51;;;;;;;20.92;15.38;;;9.00;1.00;;;;;;4972766;28;20042;-73
2021/03/24 09:34:45;;;;;;;25.17;14.85;;;9.10;1.00;;;;;;4974900;28;20042;-74
2021/03/24 09:37:14;;;;;;;24.15;16.90;;;9.20;1.00;;;;;;4971317;28;20031;-73
2021/03/24 09:40:05;;;;;;;25.85;16.98;;;9.10;1.00;;;;;;4974488;28;20019;-75
2021/03/24 09:42:35;;;;;;;20.90;15.50;;;9.40;99.90;;;;;;4971759;28;20120;-73
2021/03/24 09:45:06;;;;;;;19.25;15.75;;;9.20;1.00;;;;;;4968956;28;20027;-73
2021/03/24 09:48:03;;;;;;;20.55;15.30;;;9.10;1.00;;;;;;4987278;28;20041;-74
2021/03/24 09:51:19;;;;;;;21.50;15.82;;;9.30;1.00;;;;;;4967509;28;20050;-73
2021/03/24 09:53:45;;;;;;;22.17;15.52;;;9.80;99.90;;;;;;4933031;29;20036;-72
2021/03/24 09:56:17;;;;;;;28.65;16.33;;;10.10;1.00;;;;;;4931782;29;20440;-74
2021/03/24 09:58:54;;;;;;;19.38;15.75;;;9.70;99.90;;;;;;4948220;28;20033;-73
2021/03/24 10:01:40;;;;;;;25.48;14.88;;;9.60;99.90;;;;;;4974118;28;20030;-74
2021/03/24 10:04:30;;;;;;;20.15;16.20;;;10.10;99.90;;;;;;4977414;28;20023;-74
2021/03/24 10:07:00;;;;;;;20.83;15.18;;;10.10;99.90;;;;;;4977658;28;20038;-72
2021/03/24 10:09:34;;;;;;;19.30;14.00;;;10.00;1.00;;;;;;4973257;28;20510;-73
2021/03/24 10:12:18;;;;;;;19.38;15.25;;;10.00;99.90;;;;;;4977172;28;20057;-74
2021/03/24 10:15:16;;;;;;;19.88;14.57;;;10.10;1.00;;;;;;4975753;28;20033;-73
2021/03/24 10:17:52;;;;;;;23.13;14.27;;;10.50;99.90;;;;;;4968831;28;20387;-74
2021/03/24 10:20:23;;;;;;;23.42;15.05;;;10.80;60.20;;;;;;4976242;28;20026;-74
2021/03/24 10:22:53;;;;;;;26.13;15.32;;;10.80;99.90;;;;;;4970962;28;20035;-72
2021/03/24 10:25:43;;;;;;;17.90;14.70;;;10.90;29.10;;;;;;4985715;28;20055;-74
2021/03/24 10:28:19;;;;;;;19.15;15.30;;;10.80;1.00;;;;;;4980441;28;20479;-72
2021/03/24 10:30:58;;;;;;;22.02;14.40;;;10.90;1.00;;;;;;4985991;28;20054;-72
2021/03/24 10:34:01;;;;;;;21.27;15.05;;;11.00;1.00;;;;;;4977217;28;20110;-74
2021/03/24 10:36:41;;;;;;;21.65;14.43;;;10.80;99.90;;;;;;4955056;28;20720;-73
2021/03/24 10:39:33;;;;;;;22.38;13.98;;;11.00;99.90;;;;;;4973083;28;20039;-73
2021/03/24 10:42:05;;;;;;;18.38;14.07;;;11.10;1.00;;;;;;4970466;28;20505;-74
2021/03/24 10:44:57;;;;;;;18.38;14.07;;;11.20;43.50;;;;;;4970529;28;20027;-74
2021/03/24 10:47:41;;;;;;;17.10;14.15;;;11.50;99.90;;;;;;4972667;28;20513;-74
2021/03/24 10:50:36;;;;;;;18.42;14.15;;;11.50;1.00;;;;;;4972315;28;20495;-75
2021/03/24 10:53:06;;;;;;;20.65;13.32;;;11.30;99.90;;;;;;4968898;28;20035;-72
2021/03/24 10:55:33;;;;;;;20.42;13.40;;;11.50;99.90;;;;;;4974951;28;20046;-73
2021/03/24 10:58:14;;;;;;;20.98;13.07;;;11.60;1.00;;;;;;4969995;28;20470;-73
2021/03/24 11:00:47;;;;;;;13.85;12.32;;;12.00;77.30;;;;;;4966846;28;20035;-74
2021/03/24 11:03:22;;;;;;;16.02;13.82;;;12.10;1.00;;;;;;4965813;28;20470;-73
2021/03/24 11:05:54;;;;;;;19.00;14.07;;;12.20;99.90;;;;;;4973092;28;20121;-77
2021/03/24 11:09:01;;;;;;;17.95;13.15;;;12.00;99.90;;;;;;4969879;28;20062;-77
2021/03/24 11:11:50;;;;;;;18.00;13.27;;;12.20;99.90;;;;;;4972597;28;20031;-74
2021/03/24 11:14:38;;;;;;;20.00;14.18;;;12.30;55.50;;;;;;4972058;28;20425;-73
2021/03/24 11:17:04;;;;;;;17.65;12.95;;;12.30;1.00;;;;;;4974147;28;20467;-76
2021/03/24 11:19:32;;;;;;;18.60;12.45;;;12.10;99.90;;;;;;4975598;28;20031;-73
2021/03/24 11:22:09;;;;;;;16.00;13.43;;;11.80;92.60;;;;;;4971122;28;20019;-75
2021/03/24 11:24:51;;;;;;;15.02;12.40;;;12.00;99.90;;;;;;4969788;28;20561;-76
2021/03/24 11:27:35;;;;;;;18.15;13.20;;;12.00;1.00;;;;;;4971219;28;20039;-75
2021/03/24 11:30:20;;;;;;;19.63;14.32;;;12.10;99.90;;;;;;4988066;28;20023;-74
2021/03/24 11:33:14;;;;;;;17.95;12.77;;;12.10;99.90;;;;;;4978315;28;20027;-77
2021/03/24 11:35:58;;;;;;;16.10;12.77;;;12.30;99.90;;;;;;4973932;28;20072;-74
2021/03/24 11:39:05;;;;;;;19.13;14.05;;;12.50;1.00;;;;;;4976102;28;20023;-74
2021/03/24 11:41:34;;;;;;;17.00;12.98;;;12.70;1.00;;;;;;4918004;29;20047;-75
2021/03/24 11:44:13;;;;;;;17.73;12.65;;;12.80;99.90;;;;;;4925313;29;20036;-80
2021/03/24 11:46:41;;;;;;;15.10;11.55;;;12.90;99.90;;;;;;4948962;28;20125;-74
2021/03/24 11:49:28;;;;;;;18.63;13.48;;;13.40;1.00;;;;;;4970524;28;20743;-75
2021/03/24 11:52:13;;;;;;;16.17;12.35;;;13.30;1.00;;;;;;4970715;28;20031;-74
2021/03/24 11:54:48;;;;;;;20.70;13.70;;;12.80;99.90;;;;;;4972212;28;20517;-76
2021/03/24 11:57:38;;;;;;;23.27;13.50;;;12.80;99.90;;;;;;4980705;28;20029;-74
2021/03/24 12:00:32;;;;;;;22.33;14.40;;;12.70;99.90;;;;;;4970639;28;20509;-75
2021/03/24 12:03:31;;;;;;;21.58;15.18;;;12.50;1.00;;;;;;4975969;28;20034;-74
2021/03/24 12:06:12;;;;;;;16.80;14.38;;;12.40;99.90;;;;;;4977003;28;20372;-73
2021/03/24 12:08:45;;;;;;;17.00;13.82;;;12.60;1.80;;;;;;4971426;28;20046;-73
2021/03/24 12:11:32;;;;;;;19.98;13.95;;;12.60;1.00;;;;;;4971573;28;20089;-74
2021/03/24 12:14:17;;;;;;;21.40;15.88;;;12.70;99.90;;;;;;4976868;28;20027;-75
2021/03/24 12:16:50;;;;;;;18.02;14.10;;;12.60;1.00;;;;;;4975894;28;20054;-74
2021/03/24 12:19:38;;;;;;;22.73;15.52;;;12.80;1.00;;;;;;4977866;28;20495;-75
2021/03/24 12:22:32;;;;;;;21.27;14.23;;;12.70;99.90;;;;;;4975047;28;20030;-72
2021/03/24 12:25:10;;;;;;;22.00;14.18;;;13.10;51.70;;;;;;4973651;28;20050;-75
2021/03/24 12:27:41;;;;;;;14.85;13.18;;;13.30;1.00;;;;;;4967859;28;20027;-74
2021/03/24 12:30:22;;;;;;;21.52;13.50;;;13.40;99.90;;;;;;4975887;28;20031;-74
2021/03/24 12:32:48;;;;;;;18.00;14.10;;;13.50;99.90;;;;;;4970202;28;20033;-73
2021/03/24 12:35:28;;;;;;;17.75;14.93;;;13.70;21.10;;;;;;4973282;28;20066;-72
2021/03/24 12:38:03;;;;;;;19.65;14.80;;;13.60;1.00;;;;;;4974610;28;20019;-76
2021/03/24 12:40:30;;;;;;;25.90;14.15;;;13.60;99.90;;;;;;4974028;28;20034;-74
2021/03/24 12:43:09;;;;;;;19.35;14.90;;;13.90;99.90;;;;;;4970133;28;20027;-75
2021/03/24 12:45:41;;;;;;;22.10;15.50;;;14.10;1.00;;;;;;4957800;28;20395;-74
2021/03/24 12:48:09;;;;;;;15.60;13.20;;;13.80;37.10;;;;;;4969671;28;20051;-74
2021/03/24 12:50:48;;;;;;;16.90;13.52;;;13.80;99.90;;;;;;4966844;28;20374;-75
2021/03/24 12:53:28;;;;;;;17.60;14.68;;;14.00;64.00;;;;;;4975084;28;20037;-75
2021/03/24 12:56:27;;;;;;;15.82;13.52;;;14.30;1.00;;;;;;4970805;28;20027;-74
2021/03/24 12:58:59;;;;;;;18.27;13.07;;;14.50;1.00;;;;;;4938722;28;20031;-75
2021/03/24 13:01:48;;;;;;;16.17;13.70;;;14.40;99.90;;;;;;4973686;28;20034;-74
2021/03/24 13:04:20;;;;;;;15.25;12.75;;;14.10;1.00;;;;;;4971235;28;20106;-75
2021/03/24 13:07:24;;;;;;;17.60;13.55;;;13.90;99.90;;;;;;4972064;28;20051;-73
2021/03/24 13:10:10;;;;;;;18.30;14.45;;;13.80;99.90;;;;;;4973342;28;20502;-75
2021/03/24 13:12:44;;;;;;;18.00;15.10;;;13.80;99.90;;;;;;4964780;28;20050;-73
2021/03/24 13:15:36;;;;;;;18.60;13.65;;;13.70;99.90;;;;;;4985197;28;20430;-75
2021/03/24 13:18:09;;;;;;;19.88;14.25;;;13.90;99.90;;;;;;4971568;28;20106;-74
2021/03/24 13:21:08;;;;;;;17.40;13.98;;;14.00;1.00;;;;;;4974750;28;20375;-74
2021/03/24 13:24:08;;;;;;;16.45;13.18;;;14.00;12.00;;;;;;4971465;28;20026;-74
2021/03/24 13:26:38;;;;;;;19.08;12.48;;;13.90;48.80;;;;;;4973037;28;20027;-75
2021/03/24 13:29:06;;;;;;;15.52;12.82;;;14.20;1.00;;;;;;4967672;28;20027;-74
2021/03/24 13:31:32;;;;;;;16.35;12.80;;;14.40;1.00;;;;;;4976378;28;20031;-75
2021/03/24 13:34:39;;;;;;;15.20;12.82;;;14.20;1.00;;;;;;4971735;28;20408;-74